sensor_id;sensor_type;location;lat;lon;timestamp;pressure;altitude;pressure_sealevel;temperature;humidity
35888;BME280;21990;42.540;23.496;2023-02-07T00:00:08;94684.97;;;-5.25;78.33
35888;BME280;21990;42.540;23.496;2023-02-07T00:02:34;94682.63;;;-5.23;78.33
35888;BME280;21990;42.540;23.496;2023-02-07T00:05:00;94684.94;;;-5.18;78.02
35888;BME280;21990;42.540;23.496;2023-02-07T00:07:26;94690.47;;;-5.21;78.64
35888;BME280;21990;42.540;23.496;2023-02-07T00:09:51;94691.97;;;-5.17;78.14
35888;BME280;21990;42.540;23.496;2023-02-07T00:12:17;94692.81;;;-5.23;78.29
35888;BME280;21990;42.540;23.496;2023-02-07T00:14:43;94700.63;;;-5.18;78.51
35888;BME280;21990;42.540;23.496;2023-02-07T00:17:08;94703.00;;;-5.20;78.28
35888;BME280;21990;42.540;23.496;2023-02-07T00:19:34;94704.13;;;-5.14;78.38
35888;BME280;21990;42.540;23.496;2023-02-07T00:21:59;94710.00;;;-5.12;78.52
35888;BME280;21990;42.540;23.496;2023-02-07T00:24:25;94708.84;;;-5.15;78.31
35888;BME280;21990;42.540;23.496;2023-02-07T00:26:50;94711.56;;;-5.11;78.22
35888;BME280;21990;42.540;23.496;2023-02-07T00:29:19;94719.78;;;-5.08;77.89
35888;BME280;21990;42.540;23.496;2023-02-07T00:31:48;94730.00;;;-5.12;78.21
35888;BME280;21990;42.540;23.496;2023-02-07T00:34:13;94717.06;;;-5.11;78.30
35888;BME280;21990;42.540;23.496;2023-02-07T00:36:40;94718.66;;;-5.14;78.39
35888;BME280;21990;42.540;23.496;2023-02-07T00:39:10;94725.31;;;-5.11;78.38
35888;BME280;21990;42.540;23.496;2023-02-07T00:41:36;94733.97;;;-5.16;78.64
35888;BME280;21990;42.540;23.496;2023-02-07T00:44:02;94728.13;;;-5.22;78.99
35888;BME280;21990;42.540;23.496;2023-02-07T00:46:28;94742.63;;;-5.18;78.06
35888;BME280;21990;42.540;23.496;2023-02-07T00:48:55;94740.34;;;-5.27;78.85
35888;BME280;21990;42.540;23.496;2023-02-07T00:51:21;94745.44;;;-5.29;79.09
35888;BME280;21990;42.540;23.496;2023-02-07T00:53:46;94740.84;;;-5.42;79.17
35888;BME280;21990;42.540;23.496;2023-02-07T00:56:13;94738.44;;;-5.40;79.74
35888;BME280;21990;42.540;23.496;2023-02-07T00:58:38;94739.19;;;-5.33;79.66
35888;BME280;21990;42.540;23.496;2023-02-07T01:01:04;94729.75;;;-5.28;79.60
35888;BME280;21990;42.540;23.496;2023-02-07T01:03:30;94732.06;;;-5.23;79.60
35888;BME280;21990;42.540;23.496;2023-02-07T01:05:56;94730.88;;;-5.22;79.71
35888;BME280;21990;42.540;23.496;2023-02-07T01:08:21;94735.97;;;-5.20;79.62
35888;BME280;21990;42.540;23.496;2023-02-07T01:10:47;94734.03;;;-5.23;79.46
35888;BME280;21990;42.540;23.496;2023-02-07T01:13:14;94731.22;;;-5.16;79.14
35888;BME280;21990;42.540;23.496;2023-02-07T01:15:42;94729.63;;;-5.10;78.87
35888;BME280;21990;42.540;23.496;2023-02-07T01:18:08;94731.16;;;-5.09;78.96
35888;BME280;21990;42.540;23.496;2023-02-07T01:20:34;94731.56;;;-5.07;78.98
35888;BME280;21990;42.540;23.496;2023-02-07T01:23:00;94728.88;;;-5.14;78.96
35888;BME280;21990;42.540;23.496;2023-02-07T01:25:26;94724.88;;;-5.06;79.28
35888;BME280;21990;42.540;23.496;2023-02-07T01:27:51;94719.34;;;-5.03;79.39
35888;BME280;21990;42.540;23.496;2023-02-07T01:30:17;94726.81;;;-5.03;79.34
35888;BME280;21990;42.540;23.496;2023-02-07T01:32:43;94724.03;;;-5.00;79.14
35888;BME280;21990;42.540;23.496;2023-02-07T01:35:08;94722.53;;;-5.08;78.98
35888;BME280;21990;42.540;23.496;2023-02-07T01:37:34;94711.53;;;-5.08;78.80
35888;BME280;21990;42.540;23.496;2023-02-07T01:40:00;94718.69;;;-5.21;79.06
35888;BME280;21990;42.540;23.496;2023-02-07T01:42:27;94710.44;;;-5.21;79.45
35888;BME280;21990;42.540;23.496;2023-02-07T01:47:20;94715.63;;;-5.30;80.24
35888;BME280;21990;42.540;23.496;2023-02-07T01:49:47;94706.19;;;-5.25;80.12
35888;BME280;21990;42.540;23.496;2023-02-07T01:52:26;94704.22;;;-5.29;80.20
35888;BME280;21990;42.540;23.496;2023-02-07T01:54:54;94708.53;;;-5.28;80.45
35888;BME280;21990;42.540;23.496;2023-02-07T01:57:23;94696.28;;;-5.16;79.60
35888;BME280;21990;42.540;23.496;2023-02-07T01:59:51;94697.03;;;-5.12;79.11
35888;BME280;21990;42.540;23.496;2023-02-07T02:02:20;94703.69;;;-5.06;79.16
35888;BME280;21990;42.540;23.496;2023-02-07T02:04:53;94701.75;;;-5.12;79.48
35888;BME280;21990;42.540;23.496;2023-02-07T02:07:19;94708.38;;;-5.03;79.23
35888;BME280;21990;42.540;23.496;2023-02-07T02:09:46;94708.06;;;-5.15;79.64
35888;BME280;21990;42.540;23.496;2023-02-07T02:12:56;94700.56;;;-5.11;79.95
35888;BME280;21990;42.540;23.496;2023-02-07T02:23:19;94712.81;;;-5.19;80.81
35888;BME280;21990;42.540;23.496;2023-02-07T02:31:48;94706.84;;;-5.11;80.68
35888;BME280;21990;42.540;23.496;2023-02-07T02:34:57;94711.19;;;-5.17;80.75
35888;BME280;21990;42.540;23.496;2023-02-07T02:37:36;94719.88;;;-5.18;80.88
35888;BME280;21990;42.540;23.496;2023-02-07T02:42:49;94713.84;;;-5.03;80.88
35888;BME280;21990;42.540;23.496;2023-02-07T02:45:24;94719.44;;;-5.17;80.61
35888;BME280;21990;42.540;23.496;2023-02-07T02:47:52;94720.59;;;-5.11;80.42
35888;BME280;21990;42.540;23.496;2023-02-07T02:50:22;94719.38;;;-5.06;80.80
35888;BME280;21990;42.540;23.496;2023-02-07T02:52:48;94720.13;;;-5.02;80.74
35888;BME280;21990;42.540;23.496;2023-02-07T02:55:14;94720.16;;;-5.06;80.82
35888;BME280;21990;42.540;23.496;2023-02-07T03:00:45;94726.91;;;-5.14;80.59
35888;BME280;21990;42.540;23.496;2023-02-07T03:03:38;94721.69;;;-5.01;81.09
35888;BME280;21990;42.540;23.496;2023-02-07T03:09:15;94729.06;;;-4.91;80.59
35888;BME280;21990;42.540;23.496;2023-02-07T03:11:57;94728.69;;;-4.93;80.35
35888;BME280;21990;42.540;23.496;2023-02-07T03:17:17;94722.41;;;-4.94;80.32
35888;BME280;21990;42.540;23.496;2023-02-07T03:22:47;94734.06;;;-5.27;80.80
35888;BME280;21990;42.540;23.496;2023-02-07T03:25:16;94731.59;;;-5.11;80.73
35888;BME280;21990;42.540;23.496;2023-02-07T03:27:44;94717.00;;;-5.04;81.00
35888;BME280;21990;42.540;23.496;2023-02-07T03:30:13;94724.47;;;-5.05;80.75
35888;BME280;21990;42.540;23.496;2023-02-07T03:32:44;94737.53;;;-5.19;81.21
35888;BME280;21990;42.540;23.496;2023-02-07T03:35:17;94726.94;;;-5.21;81.06
35888;BME280;21990;42.540;23.496;2023-02-07T03:37:48;94727.28;;;-5.15;81.62
35888;BME280;21990;42.540;23.496;2023-02-07T03:40:15;94735.13;;;-5.10;81.48
35888;BME280;21990;42.540;23.496;2023-02-07T03:45:22;94728.78;;;-5.04;81.82
35888;BME280;21990;42.540;23.496;2023-02-07T03:47:47;94732.25;;;-4.96;81.25
35888;BME280;21990;42.540;23.496;2023-02-07T03:50:14;94732.63;;;-4.98;80.98
35888;BME280;21990;42.540;23.496;2023-02-07T03:52:40;94723.63;;;-5.02;80.85
35888;BME280;21990;42.540;23.496;2023-02-07T03:55:06;94731.06;;;-4.95;80.90
35888;BME280;21990;42.540;23.496;2023-02-07T03:57:32;94734.13;;;-4.86;80.44
35888;BME280;21990;42.540;23.496;2023-02-07T03:59:58;94732.53;;;-4.84;79.90
35888;BME280;21990;42.540;23.496;2023-02-07T04:02:23;94740.06;;;-4.91;80.02
35888;BME280;21990;42.540;23.496;2023-02-07T04:04:49;94734.06;;;-4.79;79.67
35888;BME280;21990;42.540;23.496;2023-02-07T04:07:14;94728.94;;;-4.77;79.96
35888;BME280;21990;42.540;23.496;2023-02-07T04:09:40;94734.09;;;-4.83;80.27
35888;BME280;21990;42.540;23.496;2023-02-07T04:12:05;94730.47;;;-4.72;79.78
35888;BME280;21990;42.540;23.496;2023-02-07T04:14:31;94737.09;;;-4.66;79.91
35888;BME280;21990;42.540;23.496;2023-02-07T04:16:56;94731.97;;;-4.64;79.64
35888;BME280;21990;42.540;23.496;2023-02-07T04:19:22;94733.97;;;-4.68;79.85
35888;BME280;21990;42.540;23.496;2023-02-07T04:21:47;94741.03;;;-4.67;80.02
35888;BME280;21990;42.540;23.496;2023-02-07T04:24:13;94737.16;;;-4.73;80.07
35888;BME280;21990;42.540;23.496;2023-02-07T04:26:39;94737.13;;;-4.70;80.08
35888;BME280;21990;42.540;23.496;2023-02-07T04:29:05;94733.19;;;-4.69;79.80
35888;BME280;21990;42.540;23.496;2023-02-07T04:31:31;94743.28;;;-4.59;79.85
35888;BME280;21990;42.540;23.496;2023-02-07T04:33:56;94740.19;;;-4.61;79.61
35888;BME280;21990;42.540;23.496;2023-02-07T04:36:22;94738.56;;;-4.58;79.45
35888;BME280;21990;42.540;23.496;2023-02-07T04:38:48;94750.78;;;-4.63;79.37
35888;BME280;21990;42.540;23.496;2023-02-07T04:41:14;94745.69;;;-4.61;79.42
35888;BME280;21990;42.540;23.496;2023-02-07T04:43:39;94745.66;;;-4.57;79.28
35888;BME280;21990;42.540;23.496;2023-02-07T04:46:05;94747.22;;;-4.56;79.21
35888;BME280;21990;42.540;23.496;2023-02-07T04:48:32;94751.94;;;-4.57;79.57
35888;BME280;21990;42.540;23.496;2023-02-07T04:50:58;94757.50;;;-4.64;79.72
35888;BME280;21990;42.540;23.496;2023-02-07T04:53:24;94752.38;;;-4.62;79.73
35888;BME280;21990;42.540;23.496;2023-02-07T04:55:51;94757.78;;;-4.55;79.77
35888;BME280;21990;42.540;23.496;2023-02-07T04:58:18;94762.91;;;-4.53;80.03
35888;BME280;21990;42.540;23.496;2023-02-07T05:00:44;94768.41;;;-4.53;79.59
35888;BME280;21990;42.540;23.496;2023-02-07T05:03:10;94774.25;;;-4.48;79.72
35888;BME280;21990;42.540;23.496;2023-02-07T05:05:40;94768.28;;;-4.43;79.69
35888;BME280;21990;42.540;23.496;2023-02-07T05:08:06;94766.31;;;-4.42;80.13
35888;BME280;21990;42.540;23.496;2023-02-07T05:10:32;94769.03;;;-4.39;80.17
35888;BME280;21990;42.540;23.496;2023-02-07T05:12:57;94766.28;;;-4.39;80.39
35888;BME280;21990;42.540;23.496;2023-02-07T05:15:23;94766.25;;;-4.35;80.69
35888;BME280;21990;42.540;23.496;2023-02-07T05:17:48;94769.78;;;-4.35;80.31
35888;BME280;21990;42.540;23.496;2023-02-07T05:20:14;94780.00;;;-4.35;80.34
35888;BME280;21990;42.540;23.496;2023-02-07T05:22:39;94778.50;;;-4.43;80.24
35888;BME280;21990;42.540;23.496;2023-02-07T05:25:05;94780.03;;;-4.39;80.38
35888;BME280;21990;42.540;23.496;2023-02-07T05:27:30;94785.16;;;-4.37;80.34
35888;BME280;21990;42.540;23.496;2023-02-07T05:29:56;94784.00;;;-4.43;80.59
35888;BME280;21990;42.540;23.496;2023-02-07T05:32:23;94783.97;;;-4.40;80.33
35888;BME280;21990;42.540;23.496;2023-02-07T05:35:08;94795.41;;;-4.41;80.67
35888;BME280;21990;42.540;23.496;2023-02-07T05:37:33;94787.94;;;-4.41;80.50
35888;BME280;21990;42.540;23.496;2023-02-07T05:39:59;94791.06;;;-4.39;80.99
35888;BME280;21990;42.540;23.496;2023-02-07T05:42:25;94787.16;;;-4.41;80.98
35888;BME280;21990;42.540;23.496;2023-02-07T05:44:50;94787.50;;;-4.39;80.70
35888;BME280;21990;42.540;23.496;2023-02-07T05:47:16;94798.91;;;-4.37;80.61
35888;BME280;21990;42.540;23.496;2023-02-07T05:49:41;94789.47;;;-4.36;80.40
35888;BME280;21990;42.540;23.496;2023-02-07T05:52:07;94790.97;;;-4.32;80.54
35888;BME280;21990;42.540;23.496;2023-02-07T05:54:33;94794.19;;;-4.37;80.49
35888;BME280;21990;42.540;23.496;2023-02-07T05:56:59;94794.97;;;-4.40;80.63
35888;BME280;21990;42.540;23.496;2023-02-07T05:59:24;94806.78;;;-4.39;80.48
35888;BME280;21990;42.540;23.496;2023-02-07T06:01:50;94808.03;;;-4.47;80.24
35888;BME280;21990;42.540;23.496;2023-02-07T06:04:15;94812.00;;;-4.52;80.87
35888;BME280;21990;42.540;23.496;2023-02-07T06:06:41;94812.81;;;-4.55;81.21
35888;BME280;21990;42.540;23.496;2023-02-07T06:09:06;94820.59;;;-4.46;81.10
35888;BME280;21990;42.540;23.496;2023-02-07T06:11:32;94822.53;;;-4.43;81.09
35888;BME280;21990;42.540;23.496;2023-02-07T06:13:57;94827.63;;;-4.42;80.88
35888;BME280;21990;42.540;23.496;2023-02-07T06:16:23;94815.03;;;-4.39;80.96
35888;BME280;21990;42.540;23.496;2023-02-07T06:18:48;94820.91;;;-4.37;81.19
35888;BME280;21990;42.540;23.496;2023-02-07T06:21:14;94815.75;;;-4.32;80.78
35888;BME280;21990;42.540;23.496;2023-02-07T06:23:39;94810.63;;;-4.29;80.61
35888;BME280;21990;42.540;23.496;2023-02-07T06:26:05;94816.53;;;-4.31;80.89
35888;BME280;21990;42.540;23.496;2023-02-07T06:28:31;94821.19;;;-4.24;80.56
35888;BME280;21990;42.540;23.496;2023-02-07T06:30:56;94819.94;;;-4.16;80.80
35888;BME280;21990;42.540;23.496;2023-02-07T06:33:24;94819.91;;;-4.13;80.68
35888;BME280;21990;42.540;23.496;2023-02-07T06:35:50;94826.91;;;-4.08;80.45
35888;BME280;21990;42.540;23.496;2023-02-07T06:38:17;94834.38;;;-4.05;80.44
35888;BME280;21990;42.540;23.496;2023-02-07T06:40:43;94825.66;;;-4.00;80.50
35888;BME280;21990;42.540;23.496;2023-02-07T06:43:09;94835.13;;;-4.01;80.18
35888;BME280;21990;42.540;23.496;2023-02-07T06:45:35;94840.63;;;-4.01;80.13
35888;BME280;21990;42.540;23.496;2023-02-07T06:48:01;94839.94;;;-4.12;79.89
35888;BME280;21990;42.540;23.496;2023-02-07T06:50:26;94834.56;;;-4.26;80.04
35888;BME280;21990;42.540;23.496;2023-02-07T06:52:52;94841.56;;;-4.18;80.21
35888;BME280;21990;42.540;23.496;2023-02-07T06:55:17;94841.16;;;-4.13;80.39
35888;BME280;21990;42.540;23.496;2023-02-07T06:57:43;94839.53;;;-4.11;80.29
35888;BME280;21990;42.540;23.496;2023-02-07T07:00:09;94841.88;;;-4.09;80.16
35888;BME280;21990;42.540;23.496;2023-02-07T07:02:34;94837.09;;;-4.02;79.54
35888;BME280;21990;42.540;23.496;2023-02-07T07:05:00;94840.50;;;-3.91;79.32
35888;BME280;21990;42.540;23.496;2023-02-07T07:07:25;94838.53;;;-3.90;79.49
35888;BME280;21990;42.540;23.496;2023-02-07T07:09:51;94842.78;;;-3.82;79.34
35888;BME280;21990;42.540;23.496;2023-02-07T07:12:16;94843.06;;;-3.73;78.75
35888;BME280;21990;42.540;23.496;2023-02-07T07:14:42;94840.44;;;-3.84;79.15
35888;BME280;21990;42.540;23.496;2023-02-07T07:17:07;94837.59;;;-3.76;78.78
35888;BME280;21990;42.540;23.496;2023-02-07T07:19:33;94841.63;;;-3.85;78.81
35888;BME280;21990;42.540;23.496;2023-02-07T07:21:58;94848.25;;;-3.78;79.13
35888;BME280;21990;42.540;23.496;2023-02-07T07:24:24;94841.56;;;-3.81;78.42
35888;BME280;21990;42.540;23.496;2023-02-07T07:26:51;94844.28;;;-3.74;78.48
35888;BME280;21990;42.540;23.496;2023-02-07T07:29:17;94841.44;;;-3.67;78.95
35888;BME280;21990;42.540;23.496;2023-02-07T07:31:43;94842.19;;;-3.63;78.26
35888;BME280;21990;42.540;23.496;2023-02-07T07:34:08;94839.38;;;-3.59;78.81
35888;BME280;21990;42.540;23.496;2023-02-07T07:36:34;94829.88;;;-3.55;78.48
35888;BME280;21990;42.540;23.496;2023-02-07T07:38:59;94836.41;;;-3.42;78.15
35888;BME280;21990;42.540;23.496;2023-02-07T07:41:25;94839.44;;;-3.32;78.23
35888;BME280;21990;42.540;23.496;2023-02-07T07:43:50;94841.31;;;-3.26;77.41
35888;BME280;21990;42.540;23.496;2023-02-07T07:46:16;94835.31;;;-3.17;76.55
35888;BME280;21990;42.540;23.496;2023-02-07T07:48:41;94835.16;;;-3.07;76.88
35888;BME280;21990;42.540;23.496;2023-02-07T07:51:07;94834.50;;;-2.88;76.52
35888;BME280;21990;42.540;23.496;2023-02-07T07:53:32;94835.38;;;-2.67;76.25
35888;BME280;21990;42.540;23.496;2023-02-07T07:55:58;94829.03;;;-2.64;76.96
35888;BME280;21990;42.540;23.496;2023-02-07T07:58:24;94834.53;;;-2.37;76.91
35888;BME280;21990;42.540;23.496;2023-02-07T08:00:50;94836.88;;;-2.13;74.25
35888;BME280;21990;42.540;23.496;2023-02-07T08:03:17;94826.66;;;-1.93;73.58
35888;BME280;21990;42.540;23.496;2023-02-07T08:05:43;94830.16;;;-1.69;71.29
35888;BME280;21990;42.540;23.496;2023-02-07T08:08:10;94831.75;;;-1.68;71.55
35888;BME280;21990;42.540;23.496;2023-02-07T08:10:35;94832.94;;;-1.69;71.14
35888;BME280;21990;42.540;23.496;2023-02-07T08:13:01;94826.16;;;-1.64;69.29
35888;BME280;21990;42.540;23.496;2023-02-07T08:15:27;94824.78;;;-1.76;68.50
35888;BME280;21990;42.540;23.496;2023-02-07T08:17:52;94824.06;;;-1.80;68.94
35888;BME280;21990;42.540;23.496;2023-02-07T08:20:18;94827.63;;;-1.79;69.09
35888;BME280;21990;42.540;23.496;2023-02-07T08:22:43;94823.28;;;-1.80;67.48
35888;BME280;21990;42.540;23.496;2023-02-07T08:25:09;94825.06;;;-1.70;68.81
35888;BME280;21990;42.540;23.496;2023-02-07T08:27:35;94822.22;;;-1.67;68.43
35888;BME280;21990;42.540;23.496;2023-02-07T08:30:02;94825.00;;;-1.67;69.11
35888;BME280;21990;42.540;23.496;2023-02-07T08:32:27;94825.69;;;-1.63;68.32
35888;BME280;21990;42.540;23.496;2023-02-07T08:34:53;94818.19;;;-1.62;68.41
35888;BME280;21990;42.540;23.496;2023-02-07T08:37:19;94820.81;;;-1.75;67.69
35888;BME280;21990;42.540;23.496;2023-02-07T08:39:45;94822.91;;;-1.82;66.68
35888;BME280;21990;42.540;23.496;2023-02-07T08:42:10;94819.25;;;-1.76;68.97
35888;BME280;21990;42.540;23.496;2023-02-07T08:44:36;94827.97;;;-1.58;68.46
35888;BME280;21990;42.540;23.496;2023-02-07T08:47:02;94825.78;;;-1.47;68.42
35888;BME280;21990;42.540;23.496;2023-02-07T08:49:28;94827.22;;;-1.38;67.93
35888;BME280;21990;42.540;23.496;2023-02-07T08:51:54;94830.91;;;-1.45;65.47
35888;BME280;21990;42.540;23.496;2023-02-07T08:54:19;94822.09;;;-1.40;67.22
35888;BME280;21990;42.540;23.496;2023-02-07T08:56:45;94832.59;;;-1.12;67.97
35888;BME280;21990;42.540;23.496;2023-02-07T08:59:11;94836.72;;;-0.84;66.50
35888;BME280;21990;42.540;23.496;2023-02-07T09:01:36;94835.03;;;-0.62;64.95
35888;BME280;21990;42.540;23.496;2023-02-07T09:04:02;94824.00;;;-0.45;64.73
35888;BME280;21990;42.540;23.496;2023-02-07T09:06:28;94836.47;;;-0.37;64.75
35888;BME280;21990;42.540;23.496;2023-02-07T09:08:53;94831.00;;;-0.41;64.56
35888;BME280;21990;42.540;23.496;2023-02-07T09:11:19;94835.31;;;-0.56;63.83
35888;BME280;21990;42.540;23.496;2023-02-07T09:13:44;94839.66;;;-0.55;63.20
35888;BME280;21990;42.540;23.496;2023-02-07T09:16:13;94836.44;;;-0.54;66.61
35888;BME280;21990;42.540;23.496;2023-02-07T09:18:39;94831.00;;;-0.25;64.20
35888;BME280;21990;42.540;23.496;2023-02-07T09:21:05;94835.25;;;-0.20;64.03
35888;BME280;21990;42.540;23.496;2023-02-07T09:23:32;94826.88;;;-0.17;62.83
35888;BME280;21990;42.540;23.496;2023-02-07T09:26:01;94839.13;;;-0.34;57.75
35888;BME280;21990;42.540;23.496;2023-02-07T09:28:28;94833.50;;;-0.47;61.02
35888;BME280;21990;42.540;23.496;2023-02-07T09:30:53;94836.69;;;-0.64;61.58
35888;BME280;21990;42.540;23.496;2023-02-07T09:33:19;94841.28;;;-0.58;61.68
35888;BME280;21990;42.540;23.496;2023-02-07T09:35:47;94834.47;;;-0.21;64.65
35888;BME280;21990;42.540;23.496;2023-02-07T09:38:19;94824.03;;;0.32;62.84
35888;BME280;21990;42.540;23.496;2023-02-07T09:40:47;94816.59;;;0.58;58.68
35888;BME280;21990;42.540;23.496;2023-02-07T09:43:42;94818.81;;;0.91;58.45
35888;BME280;21990;42.540;23.496;2023-02-07T09:46:24;94818.59;;;0.99;58.42
35888;BME280;21990;42.540;23.496;2023-02-07T09:48:55;94817.41;;;0.58;56.45
35888;BME280;21990;42.540;23.496;2023-02-07T09:51:25;94817.66;;;0.47;57.21
35888;BME280;21990;42.540;23.496;2023-02-07T09:53:58;94803.59;;;0.26;55.22
35888;BME280;21990;42.540;23.496;2023-02-07T09:56:26;94806.06;;;0.08;56.59
35888;BME280;21990;42.540;23.496;2023-02-07T09:59:13;94816.38;;;-0.09;58.73
35888;BME280;21990;42.540;23.496;2023-02-07T10:01:48;94818.66;;;-0.20;57.38
35888;BME280;21990;42.540;23.496;2023-02-07T10:06:46;94809.81;;;-0.47;59.78
35888;BME280;21990;42.540;23.496;2023-02-07T10:09:16;94801.06;;;-0.46;59.93
35888;BME280;21990;42.540;23.496;2023-02-07T10:20:29;94788.66;;;0.36;55.75
35888;BME280;21990;42.540;23.496;2023-02-07T10:28:34;94778.22;;;-0.34;54.52
35888;BME280;21990;42.540;23.496;2023-02-07T10:31:11;94775.84;;;-0.03;56.95
35888;BME280;21990;42.540;23.496;2023-02-07T10:33:39;94772.53;;;0.18;56.32
35888;BME280;21990;42.540;23.496;2023-02-07T10:36:12;94769.78;;;0.60;57.58
35888;BME280;21990;42.540;23.496;2023-02-07T10:38:50;94768.22;;;0.59;55.46
35888;BME280;21990;42.540;23.496;2023-02-07T10:41:37;94771.13;;;0.26;54.04
35888;BME280;21990;42.540;23.496;2023-02-07T10:44:24;94765.94;;;0.12;52.38
35888;BME280;21990;42.540;23.496;2023-02-07T10:46:56;94769.16;;;0.11;51.98
35888;BME280;21990;42.540;23.496;2023-02-07T10:49:26;94765.81;;;0.32;51.50
35888;BME280;21990;42.540;23.496;2023-02-07T10:51:57;94756.28;;;0.74;52.49
35888;BME280;21990;42.540;23.496;2023-02-07T10:54:24;94747.25;;;1.12;53.24
35888;BME280;21990;42.540;23.496;2023-02-07T10:56:57;94758.25;;;1.15;53.74
35888;BME280;21990;42.540;23.496;2023-02-07T10:59:44;94768.88;;;1.17;53.70
35888;BME280;21990;42.540;23.496;2023-02-07T11:04:58;94756.84;;;0.40;50.17
35888;BME280;21990;42.540;23.496;2023-02-07T11:07:25;94760.72;;;0.30;52.88
35888;BME280;21990;42.540;23.496;2023-02-07T11:09:51;94753.22;;;0.15;52.88
35888;BME280;21990;42.540;23.496;2023-02-07T11:12:44;94747.03;;;-0.06;53.07
35888;BME280;21990;42.540;23.496;2023-02-07T11:15:20;94744.84;;;0.02;52.66
35888;BME280;21990;42.540;23.496;2023-02-07T11:17:52;94743.84;;;-0.04;54.83
35888;BME280;21990;42.540;23.496;2023-02-07T11:20:28;94731.25;;;0.08;55.60
35888;BME280;21990;42.540;23.496;2023-02-07T11:22:56;94733.47;;;0.13;54.39
35888;BME280;21990;42.540;23.496;2023-02-07T11:25:35;94729.72;;;-0.10;54.92
35888;BME280;21990;42.540;23.496;2023-02-07T11:28:03;94732.31;;;-0.19;56.69
35888;BME280;21990;42.540;23.496;2023-02-07T11:30:33;94730.25;;;-0.31;57.46
35888;BME280;21990;42.540;23.496;2023-02-07T11:33:09;94728.13;;;-0.39;57.89
35888;BME280;21990;42.540;23.496;2023-02-07T11:35:59;94737.13;;;-0.52;58.50
35888;BME280;21990;42.540;23.496;2023-02-07T11:38:27;94737.66;;;-0.57;57.84
35888;BME280;21990;42.540;23.496;2023-02-07T11:40:57;94728.31;;;-0.63;56.30
35888;BME280;21990;42.540;23.496;2023-02-07T11:43:23;94729.31;;;-0.89;56.50
35888;BME280;21990;42.540;23.496;2023-02-07T11:45:52;94729.78;;;-0.90;57.27
35888;BME280;21990;42.540;23.496;2023-02-07T11:48:25;94721.47;;;-0.90;56.68
35888;BME280;21990;42.540;23.496;2023-02-07T11:50:54;94723.28;;;-0.84;56.20
35888;BME280;21990;42.540;23.496;2023-02-07T11:53:35;94713.28;;;-0.78;58.27
35888;BME280;21990;42.540;23.496;2023-02-07T11:56:02;94716.38;;;-0.60;56.40
35888;BME280;21990;42.540;23.496;2023-02-07T11:58:40;94712.22;;;-0.52;56.25
35888;BME280;21990;42.540;23.496;2023-02-07T12:01:16;94714.63;;;-0.70;54.20
35888;BME280;21990;42.540;23.496;2023-02-07T12:03:48;94709.81;;;-0.82;55.34
35888;BME280;21990;42.540;23.496;2023-02-07T12:06:18;94710.22;;;-0.83;57.73
35888;BME280;21990;42.540;23.496;2023-02-07T12:08:45;94704.59;;;-0.96;54.45
35888;BME280;21990;42.540;23.496;2023-02-07T12:11:17;94707.03;;;-0.98;54.70
35888;BME280;21990;42.540;23.496;2023-02-07T12:13:58;94708.47;;;-1.10;53.57
35888;BME280;21990;42.540;23.496;2023-02-07T12:16:34;94712.34;;;-1.23;55.16
35888;BME280;21990;42.540;23.496;2023-02-07T12:19:09;94704.19;;;-1.30;56.79
35888;BME280;21990;42.540;23.496;2023-02-07T12:24:28;94710.91;;;-0.96;58.45
35888;BME280;21990;42.540;23.496;2023-02-07T12:27:10;94714.47;;;-0.95;59.33
35888;BME280;21990;42.540;23.496;2023-02-07T12:30:05;94714.66;;;-0.86;61.23
35888;BME280;21990;42.540;23.496;2023-02-07T12:33:04;94723.09;;;-0.93;62.81
35888;BME280;21990;42.540;23.496;2023-02-07T12:38:29;94717.72;;;-1.00;65.13
35888;BME280;21990;42.540;23.496;2023-02-07T12:43:33;94718.69;;;-0.90;65.57
35888;BME280;21990;42.540;23.496;2023-02-07T12:46:12;94723.28;;;-0.84;65.74
35888;BME280;21990;42.540;23.496;2023-02-07T13:02:36;94714.19;;;-0.52;62.29
35888;BME280;21990;42.540;23.496;2023-02-07T13:08:19;94711.41;;;-0.36;58.97
35888;BME280;21990;42.540;23.496;2023-02-07T13:11:13;94708.19;;;-0.34;58.16
35888;BME280;21990;42.540;23.496;2023-02-07T13:22:52;94721.81;;;-0.56;58.36
35888;BME280;21990;42.540;23.496;2023-02-07T13:25:23;94718.19;;;-0.53;58.89
35888;BME280;21990;42.540;23.496;2023-02-07T13:27:53;94726.25;;;-0.59;58.15
35888;BME280;21990;42.540;23.496;2023-02-07T13:30:20;94715.69;;;-0.80;58.43
35888;BME280;21990;42.540;23.496;2023-02-07T13:32:47;94718.25;;;-0.89;59.27
35888;BME280;21990;42.540;23.496;2023-02-07T13:35:22;94713.25;;;-0.94;60.57
35888;BME280;21990;42.540;23.496;2023-02-07T13:38:01;94719.72;;;-0.84;60.57
35888;BME280;21990;42.540;23.496;2023-02-07T13:40:36;94708.66;;;-0.84;59.94
35888;BME280;21990;42.540;23.496;2023-02-07T13:45:53;94707.47;;;-0.67;59.33
35888;BME280;21990;42.540;23.496;2023-02-07T13:56:38;94703.91;;;-0.68;58.84
35888;BME280;21990;42.540;23.496;2023-02-07T13:59:33;94704.88;;;-0.74;58.05
35888;BME280;21990;42.540;23.496;2023-02-07T14:02:17;94705.28;;;-0.92;57.15
35888;BME280;21990;42.540;23.496;2023-02-07T14:04:55;94703.50;;;-0.82;56.86
35888;BME280;21990;42.540;23.496;2023-02-07T14:07:27;94696.56;;;-0.74;57.67
35888;BME280;21990;42.540;23.496;2023-02-07T14:09:54;94691.28;;;-0.69;58.29
35888;BME280;21990;42.540;23.496;2023-02-07T14:12:35;94684.78;;;-0.62;58.27
35888;BME280;21990;42.540;23.496;2023-02-07T14:18:01;94685.31;;;-0.67;58.30
35888;BME280;21990;42.540;23.496;2023-02-07T14:33:20;94692.75;;;-0.80;58.96
35888;BME280;21990;42.540;23.496;2023-02-07T14:36:05;94694.31;;;-0.79;59.23
35888;BME280;21990;42.540;23.496;2023-02-07T14:41:09;94690.69;;;-0.92;59.00
35888;BME280;21990;42.540;23.496;2023-02-07T14:43:47;94702.53;;;-0.92;59.22
35888;BME280;21990;42.540;23.496;2023-02-07T14:46:23;94700.25;;;-0.97;59.72
35888;BME280;21990;42.540;23.496;2023-02-07T14:48:59;94705.47;;;-0.99;58.82
35888;BME280;21990;42.540;23.496;2023-02-07T14:51:46;94698.97;;;-1.09;59.26
35888;BME280;21990;42.540;23.496;2023-02-07T14:54:28;94697.31;;;-1.22;58.48
35888;BME280;21990;42.540;23.496;2023-02-07T14:59:58;94695.63;;;-1.36;59.84